Time;durP1;ratioP1;P1;durP2;ratioP2;P2;SDS_P1;SDS_P2;PMS_P1;PMS_P2;Temp;Humidity;BMP_temperature;BMP_pressure;BME280_temperature;BME280_humidity;BME280_pressure;Samples;Min_cycle;Max_cycle;Signal;HPM_P1;HPM_P2
2021/07/02 05:08:35;;;;;;;17.98;9.95;;;;;;;33.79;42.80;100229.27;1858269;76;28433;-68
2021/07/02 05:11:09;;;;;;;18.10;8.75;;;;;;;34.48;41.19;100227.30;1802781;78;21346;-68
2021/07/02 05:13:43;;;;;;;10.98;8.50;;;;;;;35.25;39.57;100222.30;1797728;78;21355;-65
2021/07/02 05:16:17;;;;;;;10.00;8.13;;;;;;;36.01;38.14;100220.88;1793322;78;21298;-70
2021/07/02 05:18:50;;;;;;;11.15;8.28;;;;;;;36.74;36.55;100213.22;1785134;78;21302;-71
2021/07/02 05:21:23;;;;;;;13.00;9.48;;;;;;;37.38;35.26;100212.47;1785739;78;21193;-67
2021/07/02 05:23:57;;;;;;;11.48;7.53;;;;;;;37.91;34.05;100215.08;1810063;79;21256;-69
2021/07/02 05:26:30;;;;;;;13.88;7.75;;;;;;;38.30;33.46;100210.92;1727762;82;21369;-69
2021/07/02 05:29:03;;;;;;;13.62;7.37;;;;;;;38.80;32.37;100206.59;1728727;81;21329;-69
2021/07/02 05:31:36;;;;;;;7.78;7.08;;;;;;;39.18;31.86;100212.17;1724799;81;22093;-69
2021/07/02 05:34:11;;;;;;;12.07;7.47;;;;;;;39.67;30.98;100208.77;1725991;81;21347;-68
2021/07/02 05:36:43;;;;;;;12.70;8.08;;;;;;;40.03;30.04;100211.02;1740778;81;21612;-67
2021/07/02 05:39:16;;;;;;;14.28;7.47;;;;;;;39.92;30.03;100205.66;1726548;82;21306;-65
2021/07/02 05:41:50;;;;;;;8.48;7.58;;;;;;;40.11;29.72;100207.42;1709702;81;21208;-67
2021/07/02 05:44:23;;;;;;;17.25;7.67;;;;;;;40.54;28.95;100208.48;1723479;81;22156;-66
2021/07/02 05:46:56;;;;;;;22.98;8.30;;;;;;;40.94;28.83;100212.31;1723799;81;21388;-68
2021/07/02 05:49:29;;;;;;;9.35;7.12;;;;;;;41.36;28.11;100210.27;1745382;81;21220;-66
2021/07/02 05:52:03;;;;;;;9.68;7.37;;;;;;;41.73;27.49;100206.19;1732947;81;21236;-65
2021/07/02 05:54:36;;;;;;;15.53;7.20;;;;;;;42.24;26.86;100202.69;1711618;81;21199;-65
2021/07/02 05:57:09;;;;;;;14.38;6.45;;;;;;;42.76;26.12;100207.56;1738410;82;21216;-67
2021/07/02 05:59:42;;;;;;;9.73;6.35;;;;;;;42.90;25.29;100206.59;1723939;81;21185;-67
2021/07/02 06:02:15;;;;;;;9.65;7.60;;;;;;;42.86;25.43;100212.56;1740306;82;21300;-66
2021/07/02 06:04:48;;;;;;;15.60;7.75;;;;;;;42.55;25.64;100221.30;1735231;82;21232;-64
2021/07/02 06:07:23;;;;;;;12.68;7.22;;;;;;;41.91;26.31;100218.54;1724881;81;21275;-66
2021/07/02 06:09:56;;;;;;;27.25;7.25;;;;;;;41.30;27.29;100216.31;1733662;82;21522;-67
2021/07/02 06:12:31;;;;;;;15.00;7.25;;;;;;;40.93;27.84;100220.34;1712355;81;21220;-66
2021/07/02 06:15:04;;;;;;;9.55;6.40;;;;;;;40.44;28.36;100215.74;1726354;81;21185;-67
2021/07/02 06:17:38;;;;;;;10.85;6.62;;;;;;;40.03;29.02;100217.09;1740919;82;22069;-67
2021/07/02 06:20:13;;;;;;;19.50;6.87;;;;;;;40.10;29.01;100221.47;1729202;81;22124;-68
2021/07/02 06:22:46;;;;;;;23.42;7.35;;;;;;;40.50;28.78;100221.27;1730273;81;21484;-67
2021/07/02 06:25:19;;;;;;;15.93;7.05;;;;;;;41.21;27.88;100219.70;1734650;82;21225;-66
2021/07/02 06:27:53;;;;;;;13.70;6.67;;;;;;;41.96;27.06;100225.18;1729006;81;21679;-69
2021/07/02 06:30:26;;;;;;;8.83;6.35;;;;;;;42.66;26.12;100213.56;1741065;82;22117;-68
2021/07/02 06:32:59;;;;;;;8.15;5.62;;;;;;;43.32;25.49;100213.83;1727746;82;22146;-68
2021/07/02 06:35:33;;;;;;;12.45;5.87;;;;;;;44.02;24.63;100207.05;1739710;82;21419;-68
2021/07/02 06:38:06;;;;;;;9.75;5.50;;;;;;;44.56;23.66;100210.63;1735142;82;21370;-68
2021/07/02 06:40:39;;;;;;;7.58;5.70;;;;;;;44.70;23.41;100209.52;1720350;82;21300;-66
2021/07/02 06:43:12;;;;;;;10.43;4.95;;;;;;;44.91;23.09;100204.19;1739913;82;22131;-66
2021/07/02 06:45:46;;;;;;;5.95;4.40;;;;;;;45.01;22.30;100204.39;1733157;82;21327;-67
2021/07/02 06:48:19;;;;;;;11.75;5.05;;;;;;;45.20;21.94;100205.72;1721766;81;21338;-68
2021/07/02 06:50:56;;;;;;;6.42;4.42;;;;;;;45.72;21.46;100201.45;1718793;81;21281;-67
2021/07/02 06:53:28;;;;;;;8.98;4.85;;;;;;;46.42;20.72;100204.45;1740966;81;21204;-67
2021/07/02 06:56:01;;;;;;;7.00;4.75;;;;;;;47.04;19.69;100202.77;1738081;82;21249;-67
2021/07/02 06:58:34;;;;;;;14.07;5.37;;;;;;;47.41;19.59;100199.95;1708477;81;21235;-66
2021/07/02 07:01:07;;;;;;;10.32;4.87;;;;;;;47.60;19.35;100191.41;1739610;82;21201;-65
2021/07/02 07:03:41;;;;;;;8.98;4.60;;;;;;;47.89;18.92;100193.98;1738886;82;21312;-66
2021/07/02 07:06:14;;;;;;;7.65;4.78;;;;;;;48.02;18.70;100191.67;1719793;81;21248;-65
2021/07/02 07:08:48;;;;;;;9.18;4.70;;;;;;;48.08;18.73;100183.19;1736289;82;21396;-66
2021/07/02 07:11:22;;;;;;;8.73;4.30;;;;;;;48.10;18.56;100191.12;1708506;81;21266;-67
2021/07/02 07:13:55;;;;;;;5.87;4.72;;;;;;;48.11;18.40;100182.98;1717712;82;21247;-65
2021/07/02 07:16:28;;;;;;;6.03;4.50;;;;;;;48.25;18.16;100185.87;1708933;81;22170;-66
2021/07/02 07:19:03;;;;;;;5.80;4.40;;;;;;;48.41;18.01;100182.95;1708546;81;21247;-66
2021/07/02 07:21:37;;;;;;;8.30;4.95;;;;;;;48.75;17.68;100178.50;1708803;81;21220;-65
2021/07/02 07:24:11;;;;;;;6.28;5.03;;;;;;;49.07;17.70;100182.12;1718890;81;21581;-66
2021/07/02 07:26:44;;;;;;;10.30;5.22;;;;;;;49.32;17.44;100182.16;1716118;81;21323;-67
2021/07/02 07:29:18;;;;;;;5.97;5.03;;;;;;;49.35;17.34;100180.74;1723481;81;21633;-68
2021/07/02 07:31:53;;;;;;;6.20;4.83;;;;;;;49.51;17.05;100178.36;1723817;82;21306;-68
2021/07/02 07:34:38;;;;;;;6.20;4.90;;;;;;;49.50;16.94;100178.15;1722705;81;21219;-67
2021/07/02 07:37:10;;;;;;;6.58;4.58;;;;;;;49.46;17.00;100175.18;1728347;81;21446;-66
2021/07/02 07:39:42;;;;;;;6.17;4.12;;;;;;;49.51;16.67;100174.19;1733304;82;22139;-67
2021/07/02 07:42:22;;;;;;;4.72;4.22;;;;;;;49.53;16.53;100172.38;1725766;81;21330;-69
2021/07/02 07:44:55;;;;;;;6.35;4.70;;;;;;;49.60;16.60;100175.19;1724256;81;22165;-68
2021/07/02 07:47:29;;;;;;;5.87;4.42;;;;;;;49.63;16.64;100169.63;1740740;81;21327;-68
2021/07/02 07:50:08;;;;;;;8.88;4.85;;;;;;;49.46;16.37;100166.24;1738663;82;21573;-67
2021/07/02 07:52:44;;;;;;;4.20;3.72;;;;;;;49.38;16.55;100168.03;1740367;82;21212;-68
2021/07/02 07:55:13;;;;;;;7.45;4.50;;;;;;;49.53;16.18;100164.87;1730024;81;21251;-68
2021/07/02 07:57:46;;;;;;;7.40;3.92;;;;;;;49.52;16.38;100167.41;1723047;81;22238;-68
2021/07/02 08:00:21;;;;;;;4.50;4.10;;;;;;;49.42;16.29;100161.27;1722882;81;21398;-67
2021/07/02 08:02:54;;;;;;;7.30;4.20;;;;;;;49.14;16.61;100164.05;1734236;82;21220;-66
2021/07/02 08:05:28;;;;;;;7.22;3.90;;;;;;;49.03;16.99;100161.88;1724147;81;21319;-65
2021/07/02 08:08:01;;;;;;;4.10;3.65;;;;;;;49.03;17.13;100155.72;1715676;81;21346;-67
2021/07/02 08:10:35;;;;;;;5.17;3.70;;;;;;;48.94;17.14;100158.70;1734473;82;21338;-66
2021/07/02 08:13:08;;;;;;;6.22;4.53;;;;;;;48.96;17.12;100152.14;1708577;81;21322;-67
2021/07/02 08:15:42;;;;;;;6.67;3.90;;;;;;;48.82;17.23;100152.91;1723650;82;21300;-69
2021/07/02 08:18:16;;;;;;;5.55;4.03;;;;;;;48.71;17.22;100153.47;1718709;81;21466;-66
2021/07/02 08:20:49;;;;;;;5.45;4.03;;;;;;;48.64;17.40;100147.91;1701616;82;22246;-66
2021/07/02 08:23:23;;;;;;;7.83;3.87;;;;;;;48.59;17.37;100141.34;1735236;82;21334;-66
2021/07/02 08:25:56;;;;;;;4.85;4.00;;;;;;;48.52;17.31;100143.52;1723578;81;21312;-66
2021/07/02 08:31:27;;;;;;;5.95;3.75;;;;;;;48.21;17.49;100146.17;1740272;82;22786;-66
2021/07/02 08:34:01;;;;;;;4.30;3.47;;;;;;;47.96;17.14;100139.13;1726319;82;21373;-66
2021/07/02 08:36:34;;;;;;;6.25;3.37;;;;;;;47.66;17.68;100139.91;1744295;81;21219;-66
2021/07/02 08:39:08;;;;;;;7.83;3.50;;;;;;;47.44;17.96;100138.20;1745649;81;22141;-65
2021/07/02 08:41:42;;;;;;;5.40;3.40;;;;;;;46.95;18.45;100146.28;1731579;82;21213;-65
2021/07/02 08:44:15;;;;;;;5.58;3.45;;;;;;;46.68;18.99;100144.21;1747258;81;21256;-66
2021/07/02 08:46:50;;;;;;;6.08;3.52;;;;;;;46.59;19.30;100136.80;1740525;81;21483;-65
2021/07/02 08:49:25;;;;;;;5.58;3.83;;;;;;;46.49;19.03;100129.76;1741900;81;21292;-69
2021/07/02 08:52:25;;;;;;;7.15;3.95;;;;;;;45.89;19.72;100137.28;1743911;82;21204;-66
2021/07/02 08:55:38;;;;;;;6.65;3.87;;;;;;;45.39;20.17;100137.14;1743100;81;21190;-66
2021/07/02 08:58:15;;;;;;;7.53;4.37;;;;;;;45.12;20.32;100132.14;1761070;80;21593;-65
2021/07/02 09:00:49;;;;;;;6.05;3.92;;;;;;;44.91;20.90;100134.55;1764339;80;22184;-66
2021/07/02 09:03:32;;;;;;;7.72;3.77;;;;;;;44.87;21.19;100141.98;1762130;80;21641;-66
2021/07/02 09:06:16;;;;;;;;;;;;;;;44.96;21.16;100131.48;1766751;80;21371;-68
2021/07/02 09:09:02;;;;;;;;;;;;;;;45.00;21.16;100133.71;1764385;80;20266;-66
2021/07/02 09:11:35;;;;;;;9.33;3.55;;;;;;;44.90;21.03;100132.16;1765892;80;20525;-68
2021/07/02 09:14:10;;;;;;;6.65;3.55;;;;;;;44.81;20.98;100129.59;1746337;80;21297;-66
2021/07/02 09:16:48;;;;;;;8.83;4.03;;;;;;;44.66;21.44;100133.29;1722645;82;21191;-67
2021/07/02 09:19:34;;;;;;;8.10;4.20;;;;;;;44.10;21.49;100135.13;1755362;80;21371;-67
2021/07/02 09:22:19;;;;;;;5.33;3.83;;;;;;;43.68;22.37;100131.42;1768462;80;21656;-67
2021/07/02 09:24:52;;;;;;;6.37;4.03;;;;;;;43.49;22.86;100129.97;1769123;79;21329;-69
2021/07/02 09:27:30;;;;;;;14.33;4.17;;;;;;;43.26;22.90;100125.65;1755083;79;21300;-67
2021/07/02 09:30:11;;;;;;;6.55;3.98;;;;;;;42.91;23.21;100122.02;1713824;82;21225;-67
2021/07/02 09:32:49;;;;;;;5.80;3.60;;;;;;;42.68;23.57;100121.78;1725809;81;21619;-67
2021/07/02 09:35:25;;;;;;;8.93;4.10;;;;;;;42.53;23.82;100120.39;1745093;79;21217;-68
2021/07/02 09:38:01;;;;;;;5.37;3.47;;;;;;;42.53;23.89;100116.27;1754203;79;21577;-69
2021/07/02 09:40:37;;;;;;;7.03;4.17;;;;;;;42.10;23.89;100110.92;1717338;82;21357;-69
2021/07/02 09:43:17;;;;;;;5.62;3.47;;;;;;;41.44;24.75;100115.91;1739740;81;21595;-68
2021/07/02 09:45:56;;;;;;;9.33;3.77;;;;;;;40.97;25.65;100115.54;1737231;80;21323;-67
2021/07/02 09:48:30;;;;;;;8.48;3.67;;;;;;;40.68;26.41;100106.63;1735887;80;21299;-67
2021/07/02 09:51:06;;;;;;;8.45;3.98;;;;;;;40.39;26.26;100104.02;1729356;81;21230;-67
2021/07/02 09:53:40;;;;;;;5.50;3.55;;;;;;;40.17;26.89;100099.70;1755020;80;21561;-67
2021/07/02 09:56:20;;;;;;;16.70;4.55;;;;;;;40.10;26.79;100102.97;1723266;81;21378;-67
2021/07/02 09:58:53;;;;;;;8.33;4.08;;;;;;;39.97;26.67;100093.63;1732129;81;21376;-67
2021/07/02 10:01:29;;;;;;;7.25;3.50;;;;;;;39.87;25.91;100095.39;1754825;80;21213;-67
2021/07/02 10:04:10;;;;;;;7.00;3.27;;;;;;;39.83;25.51;100086.23;1720455;79;22135;-67
2021/07/02 10:06:43;;;;;;;5.72;2.67;;;;;;;39.73;25.34;100088.00;1761552;80;21212;-67
2021/07/02 10:09:17;;;;;;;7.47;3.60;;;;;;;39.53;25.17;100082.13;1739860;80;21384;-65
2021/07/02 10:11:50;;;;;;;7.78;3.83;;;;;;;39.26;26.05;100085.38;1720247;82;21979;-65
2021/07/02 10:14:24;;;;;;;6.33;3.62;;;;;;;39.10;26.76;100079.39;1744844;80;21311;-65
2021/07/02 10:16:58;;;;;;;8.98;3.62;;;;;;;39.01;26.83;100083.52;1730967;81;21196;-64
2021/07/02 10:19:32;;;;;;;8.05;3.72;;;;;;;38.97;27.50;100079.84;1743459;80;21327;-67
2021/07/02 10:22:06;;;;;;;9.18;3.62;;;;;;;38.90;27.85;100088.56;1724838;80;21228;-66
2021/07/02 10:24:41;;;;;;;5.22;3.30;;;;;;;38.80;27.49;100083.45;1766301;80;21306;-66
2021/07/02 10:27:15;;;;;;;5.55;3.25;;;;;;;38.45;28.14;100085.20;1751860;80;22165;-66
2021/07/02 10:29:50;;;;;;;5.20;3.65;;;;;;;38.21;28.42;100081.02;1758688;80;22063;-67
2021/07/02 10:32:24;;;;;;;5.62;3.17;;;;;;;38.11;28.75;100079.17;1756900;79;21422;-67
2021/07/02 10:35:02;;;;;;;6.12;3.02;;;;;;;38.11;28.50;100083.27;1750745;80;21515;-66
2021/07/02 10:37:35;;;;;;;4.33;3.12;;;;;;;38.04;28.70;100081.58;1718806;81;22161;-67
2021/07/02 10:40:35;;;;;;;6.20;3.50;;;;;;;37.93;28.48;100087.14;1748311;80;21205;-66
2021/07/02 10:43:18;;;;;;;3.40;2.80;;;;;;;37.89;28.47;100087.52;1736582;80;21267;-67
2021/07/02 10:46:17;;;;;;;8.10;3.08;;;;;;;37.90;28.64;100084.48;1730275;81;22158;-66
2021/07/02 10:49:01;;;;;;;5.40;3.17;;;;;;;37.93;28.22;100078.94;1762026;80;22218;-67
2021/07/02 10:51:44;;;;;;;6.35;3.42;;;;;;;37.74;28.39;100081.92;1722014;81;21314;-67
2021/07/02 10:54:25;;;;;;;6.47;3.22;;;;;;;37.66;27.93;100087.64;1764470;80;21319;-67
2021/07/02 10:57:07;;;;;;;6.92;3.35;;;;;;;37.52;28.91;100091.05;1765975;80;21323;-68
2021/07/02 10:59:45;;;;;;;5.17;3.35;;;;;;;37.52;29.46;100086.95;1750404;80;21331;-66
2021/07/02 11:02:27;;;;;;;6.83;3.08;;;;;;;37.59;29.04;100085.14;1754826;80;21646;-66
2021/07/02 11:05:02;;;;;;;4.55;3.40;;;;;;;37.58;29.13;100092.52;1724951;81;21348;-67
2021/07/02 11:07:41;;;;;;;6.95;3.30;;;;;;;37.59;29.57;100090.60;1737952;80;21578;-67
2021/07/02 11:10:15;;;;;;;9.70;3.37;;;;;;;37.51;30.13;100092.74;1747313;80;21617;-67
2021/07/02 11:12:59;;;;;;;8.00;3.25;;;;;;;37.53;30.17;100095.95;1746982;82;21202;-67
2021/07/02 11:15:32;;;;;;;;;;;;;;;37.48;29.46;100096.09;1738215;81;21214;-65
2021/07/02 11:18:15;;;;;;;7.87;3.15;;;;;;;37.42;28.97;100092.73;1756992;81;20682;-67
2021/07/02 11:20:48;;;;;;;7.15;3.20;;;;;;;37.29;28.94;100100.99;1734923;81;21309;-66
2021/07/02 11:27:56;;;;;;;6.00;3.27;;;;;;;37.05;29.41;100097.30;1757271;80;21177;-65
2021/07/02 11:30:36;;;;;;;5.83;3.20;;;;;;;36.97;30.18;100094.77;1716008;82;21268;-66
2021/07/02 11:33:16;;;;;;;9.20;3.25;;;;;;;36.78;29.76;100098.25;1796218;79;21427;-67
2021/07/02 11:35:56;;;;;;;6.03;3.17;;;;;;;36.69;30.63;100092.50;1789679;78;21180;-66
2021/07/02 11:38:30;;;;;;;8.93;3.17;;;;;;;36.71;30.47;100088.92;1790531;78;21564;-65
2021/07/02 11:41:09;;;;;;;7.00;3.20;;;;;;;36.71;30.49;100087.56;1791188;79;22085;-66
2021/07/02 11:43:43;;;;;;;5.87;3.22;;;;;;;36.67;30.61;100087.92;1797646;78;21326;-66
2021/07/02 11:46:18;;;;;;;8.23;3.85;;;;;;;36.67;30.19;100087.38;1786362;78;21314;-67
2021/07/02 11:48:53;;;;;;;7.90;3.35;;;;;;;36.68;29.40;100086.82;1780114;79;21371;-65
2021/07/02 11:51:32;;;;;;;8.38;3.22;;;;;;;36.68;29.10;100079.45;1763403;79;21299;-67
2021/07/02 11:54:08;;;;;;;4.05;3.00;;;;;;;36.58;29.33;100072.07;1780913;78;21247;-67
2021/07/02 11:56:42;;;;;;;6.87;3.20;;;;;;;36.47;30.14;100063.36;1782678;78;21363;-66
2021/07/02 11:59:16;;;;;;;;;;;;;;;36.34;30.10;100066.38;1781000;79;21267;-66
2021/07/02 12:01:54;;;;;;;5.95;3.33;;;;;;;36.15;30.53;100062.22;1765158;79;20395;-65
2021/07/02 12:04:31;;;;;;;6.42;3.15;;;;;;;36.04;31.20;100061.64;1795796;78;22156;-65
2021/07/02 12:07:03;;;;;;;8.70;3.27;;;;;;;36.04;30.74;100056.77;1787865;78;21374;-65
2021/07/02 12:09:47;;;;;;;5.83;3.08;;;;;;;36.04;30.08;100053.46;1754696;79;21289;-66
2021/07/02 12:12:22;;;;;;;4.95;2.90;;;;;;;36.10;30.02;100052.24;1787064;79;21644;-66
2021/07/02 12:14:56;;;;;;;6.50;2.85;;;;;;;36.15;30.48;100052.12;1806471;79;21161;-67
2021/07/02 12:17:29;;;;;;;8.93;3.33;;;;;;;36.15;29.63;100060.85;1784873;79;21362;-66
2021/07/02 12:20:04;;;;;;;6.70;3.42;;;;;;;36.09;30.05;100061.52;1808788;79;21279;-65
2021/07/02 12:22:37;;;;;;;7.03;3.25;;;;;;;35.99;30.46;100059.06;1798667;79;21306;-64
2021/07/02 12:25:13;;;;;;;6.87;3.10;;;;;;;35.85;30.48;100059.60;1787839;79;21223;-64
2021/07/02 12:27:49;;;;;;;4.92;3.00;;;;;;;35.71;30.95;100054.75;1786934;79;22213;-65
2021/07/02 12:30:22;;;;;;;8.18;3.33;;;;;;;35.60;31.79;100064.27;1770474;78;21503;-65
2021/07/02 12:32:56;;;;;;;;;;;;;;;35.50;31.87;100063.09;1786287;79;21205;-64
2021/07/02 12:35:29;;;;;;;8.93;3.45;;;;;;;35.44;32.20;100064.33;1791221;79;20275;-65
